Time;durP1;ratioP1;P1;durP2;ratioP2;P2;SDS_P1;SDS_P2;PMS_P1;PMS_P2;Temp;Humidity;BMP_temperature;BMP_pressure;BME280_temperature;BME280_humidity;BME280_pressure;Samples;Min_cycle;Max_cycle;Signal;HPM_P1;HPM_P2
2022/03/16 00:01:11;;;;;;;32.45;26.58;;;;;;;1.49;100.00;101330.41;5071324;28;20024;-62
2022/03/16 00:03:37;;;;;;;31.65;27.17;;;;;;;1.52;100.00;101331.28;5070504;28;20035;-62
2022/03/16 00:06:02;;;;;;;38.72;28.60;;;;;;;1.54;100.00;101336.47;5069931;28;20801;-62
2022/03/16 00:08:29;;;;;;;33.10;29.13;;;;;;;1.55;100.00;101341.66;5069219;28;20145;-62
2022/03/16 00:10:56;;;;;;;44.00;28.25;;;;;;;1.58;100.00;101345.13;5070140;28;20024;-63
2022/03/16 00:13:21;;;;;;;35.00;29.50;;;;;;;1.52;100.00;101335.63;5070758;28;20028;-62
2022/03/16 00:15:46;;;;;;;34.17;28.83;;;;;;;1.49;100.00;101330.41;5052118;28;20028;-62
2022/03/16 00:18:13;;;;;;;39.22;31.17;;;;;;;1.46;100.00;101330.41;5068774;28;20835;-62
2022/03/16 00:20:38;;;;;;;40.17;29.23;;;;;;;1.49;100.00;101331.28;5052217;28;21024;-62
2022/03/16 00:23:05;;;;;;;34.20;28.38;;;;;;;1.49;100.00;101330.41;5067391;28;20032;-62
2022/03/16 00:25:30;;;;;;;36.67;29.00;;;;;;;1.48;100.00;101329.56;5066765;28;20110;-63
2022/03/16 00:27:55;;;;;;;37.88;29.25;;;;;;;1.47;100.00;101326.97;5069964;28;20036;-62
2022/03/16 00:30:21;;;;;;;38.08;29.55;;;;;;;1.48;100.00;101319.22;5071129;28;20037;-62
2022/03/16 00:32:46;;;;;;;42.33;29.35;;;;;;;1.50;100.00;101326.97;5069352;28;20032;-61
2022/03/16 00:35:11;;;;;;;38.30;29.63;;;;;;;1.53;100.00;101321.78;5050374;28;20028;-62
2022/03/16 00:37:37;;;;;;;48.63;30.50;;;;;;;1.58;100.00;101330.44;5069296;28;20024;-61
2022/03/16 00:40:02;;;;;;;38.97;30.38;;;;;;;1.63;100.00;101322.66;5069412;28;20542;-62
2022/03/16 00:42:28;;;;;;;41.92;32.47;;;;;;;1.67;100.00;101321.81;5055101;28;20028;-61
2022/03/16 00:44:54;;;;;;;34.95;29.52;;;;;;;1.73;100.00;101319.22;5053450;28;20993;-61
2022/03/16 00:47:19;;;;;;;44.00;32.20;;;;;;;1.78;100.00;101317.50;5050737;28;20024;-62
2022/03/16 00:49:45;;;;;;;39.00;30.98;;;;;;;1.83;100.00;101323.53;5056470;28;20039;-61
2022/03/16 00:52:10;;;;;;;45.50;33.28;;;;;;;1.90;100.00;101320.97;5055030;28;20090;-61
2022/03/16 00:54:35;;;;;;;39.58;32.90;;;;;;;1.90;100.00;101308.00;5046606;28;20711;-61
2022/03/16 00:57:01;;;;;;;43.40;33.10;;;;;;;2.01;100.00;101319.22;5051927;28;20190;-62
2022/03/16 00:59:26;;;;;;;51.65;42.25;;;;;;;2.08;100.00;101314.03;5053967;28;20391;-61
2022/03/16 01:01:52;;;;;;;46.13;40.60;;;;;;;2.02;100.00;101282.09;5051347;28;20057;-61
2022/03/16 01:04:17;;;;;;;57.28;42.55;;;;;;;2.27;100.00;101308.81;5048489;28;20127;-62
2022/03/16 01:06:43;;;;;;;54.60;39.70;;;;;;;2.27;100.00;101292.41;5047308;28;20032;-61
2022/03/16 01:09:08;;;;;;;60.47;43.42;;;;;;;2.30;100.00;101298.44;5060658;28;20024;-62
2022/03/16 01:11:34;;;;;;;56.63;40.08;;;;;;;2.36;100.00;101300.19;5070618;28;20032;-62
2022/03/16 01:14:00;;;;;;;49.28;39.22;;;;;;;2.37;100.00;101307.94;5070359;28;20020;-62
2022/03/16 01:16:25;;;;;;;56.45;42.25;;;;;;;2.38;100.00;101295.84;5069452;28;20036;-62
2022/03/16 01:18:50;;;;;;;58.80;40.70;;;;;;;2.41;100.00;101290.63;5059760;28;20086;-62
2022/03/16 01:35:34;;;;;;;51.40;40.75;;;;;;;2.48;100.00;101292.34;5042979;28;20036;-64
2022/03/16 01:38:00;;;;;;;46.70;39.67;;;;;;;2.39;100.00;101287.19;5068611;28;20088;-63
2022/03/16 01:40:25;;;;;;;51.80;41.83;;;;;;;2.35;100.00;101285.47;5048583;28;20020;-63
2022/03/16 01:42:51;;;;;;;52.30;42.58;;;;;;;2.34;100.00;101288.94;5066916;28;20019;-63
2022/03/16 01:45:16;;;;;;;52.65;40.45;;;;;;;2.37;100.00;101292.38;5066444;28;20807;-63
2022/03/16 01:47:41;;;;;;;52.95;43.05;;;;;;;2.37;100.00;101288.91;5049010;28;20028;-63
2022/03/16 01:50:08;;;;;;;53.22;40.17;;;;;;;2.18;100.00;101263.91;5067018;28;20024;-63
2022/03/16 01:52:34;;;;;;;60.33;45.08;;;;;;;2.34;100.00;101292.38;5066610;28;20020;-64
2022/03/16 01:55:04;;;;;;;52.65;42.78;;;;;;;2.36;100.00;101287.22;5067021;28;20922;-64
2022/03/16 01:57:32;;;;;;;56.13;42.85;;;;;;;2.26;100.00;101276.00;5066824;28;20492;-64
2022/03/16 01:59:58;;;;;;;52.85;42.50;;;;;;;2.26;100.00;101269.97;5066591;28;20020;-63
2022/03/16 02:02:23;;;;;;;53.55;44.92;;;;;;;2.24;100.00;101251.78;5068080;28;20940;-64
2022/03/16 02:04:49;;;;;;;56.53;45.10;;;;;;;2.36;100.00;101276.84;5048299;28;20080;-64
2022/03/16 02:07:15;;;;;;;68.78;46.65;;;;;;;2.34;100.00;101278.56;5050286;28;20138;-64
2022/03/16 02:09:40;;;;;;;56.33;44.05;;;;;;;2.25;100.00;101265.63;5049152;28;20031;-64
2022/03/16 02:12:06;;;;;;;58.30;43.17;;;;;;;2.23;100.00;101264.78;5068232;28;20027;-64
2022/03/16 02:14:32;;;;;;;58.78;42.88;;;;;;;2.22;100.00;101268.22;5066214;28;20024;-64
2022/03/16 02:16:58;;;;;;;53.33;42.63;;;;;;;2.18;100.00;101271.69;5067986;28;20921;-64
2022/03/16 02:19:24;;;;;;;49.80;38.53;;;;;;;2.03;100.00;101252.69;5049752;28;20024;-64
2022/03/16 02:21:54;;;;;;;58.88;41.05;;;;;;;1.95;100.00;101238.91;5056837;28;20140;-64
2022/03/16 02:24:20;;;;;;;52.50;41.70;;;;;;;2.15;100.00;101275.16;5047330;28;20036;-64
2022/03/16 02:26:45;;;;;;;49.65;39.90;;;;;;;2.09;100.00;101266.53;5048384;28;20024;-64
2022/03/16 02:29:11;;;;;;;53.80;40.08;;;;;;;2.09;100.00;101272.59;5046503;28;20032;-64
2022/03/16 02:31:36;;;;;;;53.92;41.53;;;;;;;2.10;100.00;101268.22;5046063;28;20079;-63
2022/03/16 02:34:01;;;;;;;51.58;40.17;;;;;;;2.16;100.00;101268.25;5044489;28;20058;-63
2022/03/16 02:36:27;;;;;;;51.75;40.60;;;;;;;2.05;100.00;101245.81;5051910;28;20103;-63
2022/03/16 02:38:52;;;;;;;52.97;40.97;;;;;;;1.99;100.00;101248.38;5067161;28;20019;-64
2022/03/16 02:41:18;;;;;;;46.92;39.72;;;;;;;2.14;100.00;101275.16;5065821;28;20032;-63
2022/03/16 02:43:43;;;;;;;48.53;38.35;;;;;;;1.99;100.00;101250.97;5066493;28;20023;-63
2022/03/16 02:46:08;;;;;;;63.97;41.05;;;;;;;2.11;100.00;101272.56;5066487;28;20871;-63
2022/03/16 02:48:34;;;;;;;48.33;38.92;;;;;;;2.05;100.00;101282.09;5065770;28;20826;-63
2022/03/16 02:50:59;;;;;;;44.55;36.35;;;;;;;2.00;100.00;101283.81;5065274;28;20024;-64
2022/03/16 02:53:25;;;;;;;43.75;36.70;;;;;;;1.82;100.00;101263.13;5065569;28;20863;-64
2022/03/16 02:55:50;;;;;;;46.22;37.33;;;;;;;1.98;100.00;101288.16;5066043;28;20047;-64
2022/03/16 02:58:16;;;;;;;48.80;38.38;;;;;;;1.88;100.00;101278.66;5066604;28;20919;-64
2022/03/16 03:00:42;;;;;;;46.40;36.72;;;;;;;1.86;100.00;101290.72;5065841;28;20093;-64
2022/03/16 03:03:08;;;;;;;47.10;36.97;;;;;;;1.82;100.00;101283.84;5047389;28;20027;-63
2022/03/16 03:05:33;;;;;;;45.58;34.78;;;;;;;1.79;100.00;101294.19;5065612;28;20024;-63
2022/03/16 03:07:59;;;;;;;46.30;35.55;;;;;;;1.80;100.00;101285.56;5066269;28;20036;-63
2022/03/16 03:10:25;;;;;;;49.28;36.97;;;;;;;1.77;100.00;101282.09;5066418;28;20055;-63
2022/03/16 03:12:51;;;;;;;51.97;35.00;;;;;;;1.68;100.00;101282.09;5067191;28;20084;-63
2022/03/16 03:15:16;;;;;;;46.92;34.50;;;;;;;1.67;100.00;101276.06;5065666;28;21036;-64
2022/03/16 03:17:42;;;;;;;44.45;34.47;;;;;;;1.67;100.00;101278.66;5065969;28;20802;-63
2022/03/16 03:20:09;;;;;;;44.85;35.00;;;;;;;1.49;100.00;101239.78;5048433;28;20028;-63
2022/03/16 03:22:34;;;;;;;45.17;34.75;;;;;;;1.65;100.00;101262.25;5066333;28;20055;-63
2022/03/16 03:25:00;;;;;;;46.35;35.70;;;;;;;1.66;100.00;101271.72;5066216;28;20736;-63
2022/03/16 03:27:25;;;;;;;57.15;39.55;;;;;;;1.63;100.00;101266.56;5065231;28;20074;-63
2022/03/16 03:29:51;;;;;;;50.35;37.30;;;;;;;1.65;100.00;101270.03;5066486;28;20135;-63
2022/03/16 03:32:17;;;;;;;51.15;37.33;;;;;;;1.57;100.00;101256.19;5066450;28;20020;-64
2022/03/16 03:34:47;;;;;;;48.38;36.15;;;;;;;1.11;100.00;101181.97;5066867;28;20999;-65
2022/03/16 03:37:16;;;;;;;47.88;36.03;;;;;;;1.54;100.00;101258.78;5066802;28;20040;-64
2022/03/16 03:39:42;;;;;;;47.17;34.75;;;;;;;1.49;100.00;101252.72;5065145;28;20131;-64
2022/03/16 03:42:07;;;;;;;48.92;36.63;;;;;;;1.43;100.00;101252.75;5046828;28;20031;-64
2022/03/16 03:44:36;;;;;;;45.13;34.50;;;;;;;1.41;100.00;101260.53;5066950;28;20953;-64
2022/03/16 03:47:05;;;;;;;44.65;35.03;;;;;;;1.48;100.00;101266.56;5066296;28;20027;-64
2022/03/16 03:49:34;;;;;;;47.60;36.15;;;;;;;1.48;100.00;101256.22;5065439;28;20291;-64
2022/03/16 03:52:00;;;;;;;43.67;35.00;;;;;;;1.48;100.00;101258.81;5066901;28;20030;-64
2022/03/16 03:54:26;;;;;;;47.95;35.30;;;;;;;1.46;100.00;101253.59;5046911;28;20059;-64
2022/03/16 03:56:51;;;;;;;46.75;33.58;;;;;;;1.42;100.00;101251.03;5066413;28;20137;-64
2022/03/16 03:59:16;;;;;;;48.03;33.88;;;;;;;1.49;100.00;101252.72;5065218;28;20802;-64
2022/03/16 04:01:42;;;;;;;44.40;35.67;;;;;;;1.51;100.00;101256.22;5066197;28;20028;-64
2022/03/16 04:04:07;;;;;;;46.65;35.40;;;;;;;1.37;100.00;101232.03;5067836;28;20032;-64
2022/03/16 04:06:33;;;;;;;48.72;37.78;;;;;;;1.48;100.00;101257.06;5068878;28;20924;-63
2022/03/16 04:08:58;;;;;;;48.53;36.22;;;;;;;1.55;100.00;101253.59;5068227;28;20136;-64
2022/03/16 04:11:24;;;;;;;46.50;34.83;;;;;;;1.57;100.00;101251.03;5068295;28;20969;-63
2022/03/16 04:13:49;;;;;;;47.80;35.03;;;;;;;1.54;100.00;101245.84;5068744;28;20114;-63
2022/03/16 04:16:14;;;;;;;42.55;35.85;;;;;;;1.38;100.00;101228.59;5069440;28;20031;-63
2022/03/16 04:18:40;;;;;;;48.85;35.08;;;;;;;1.50;100.00;101250.16;5068641;28;20815;-64
2022/03/16 04:21:05;;;;;;;49.05;35.50;;;;;;;1.46;100.00;101239.78;5069513;28;20031;-63
2022/03/16 04:23:31;;;;;;;41.85;32.50;;;;;;;1.43;100.00;101239.78;5070048;28;20081;-63
2022/03/16 04:25:56;;;;;;;46.33;34.50;;;;;;;1.48;100.00;101259.66;5068311;28;20851;-64
2022/03/16 04:28:21;;;;;;;47.88;34.95;;;;;;;1.49;100.00;101257.91;5068165;28;20030;-63
2022/03/16 04:30:47;;;;;;;48.40;32.78;;;;;;;1.52;100.00;101252.75;5069987;28;20024;-63
2022/03/16 04:33:12;;;;;;;41.85;32.42;;;;;;;1.51;100.00;101240.66;5066619;28;20042;-63
2022/03/16 04:35:38;;;;;;;44.15;32.50;;;;;;;1.53;100.00;101244.13;5068037;28;20034;-63
2022/03/16 04:38:04;;;;;;;47.63;33.65;;;;;;;1.55;100.00;101253.59;5067871;28;20024;-64
2022/03/16 04:40:29;;;;;;;47.47;34.13;;;;;;;1.55;100.00;101245.00;5067874;28;20794;-64
2022/03/16 04:42:55;;;;;;;49.78;33.65;;;;;;;1.42;100.00;101227.72;5067699;28;20963;-63
2022/03/16 04:45:20;;;;;;;42.92;33.13;;;;;;;1.58;100.00;101252.75;5068345;28;20070;-64
2022/03/16 04:47:45;;;;;;;46.10;34.05;;;;;;;1.54;100.00;101240.66;5068055;28;20903;-64
2022/03/16 04:50:11;;;;;;;46.15;33.90;;;;;;;1.62;100.00;101248.44;5070058;28;20040;-64
2022/03/16 04:52:46;;;;;;;47.88;34.53;;;;;;;1.63;100.00;101239.78;5067567;28;20854;-64
2022/03/16 04:55:11;;;;;;;47.03;34.15;;;;;;;1.64;100.00;101239.81;5049567;28;20116;-64
2022/03/16 04:57:37;;;;;;;42.58;34.80;;;;;;;1.69;100.00;101235.47;5050500;28;20883;-64
2022/03/16 05:00:03;;;;;;;44.45;34.95;;;;;;;1.66;100.00;101225.13;5068308;28;20058;-64
2022/03/16 05:02:28;;;;;;;47.58;35.30;;;;;;;1.69;100.00;101238.06;5067666;28;20024;-64
2022/03/16 05:04:54;;;;;;;45.38;35.63;;;;;;;1.67;100.00;101239.81;5068906;28;20065;-64
2022/03/16 05:07:19;;;;;;;44.05;32.30;;;;;;;1.59;100.00;101228.56;5068357;28;20024;-64
2022/03/16 05:09:44;;;;;;;50.70;36.60;;;;;;;1.60;100.00;101234.63;5067812;28;20889;-64
2022/03/16 05:12:10;;;;;;;47.42;35.33;;;;;;;1.56;100.00;101225.97;5068995;28;20435;-64
2022/03/16 05:14:35;;;;;;;45.58;34.80;;;;;;;1.60;100.00;101232.03;5066825;28;20032;-64
2022/03/16 05:17:01;;;;;;;53.45;36.83;;;;;;;1.57;100.00;101230.31;5049981;28;20042;-64
2022/03/16 05:19:26;;;;;;;45.58;36.22;;;;;;;1.57;100.00;101227.72;5051333;28;20271;-64
2022/03/16 05:21:51;;;;;;;44.85;36.28;;;;;;;1.50;100.00;101224.25;5067752;28;20028;-64
2022/03/16 05:24:20;;;;;;;44.92;37.45;;;;;;;1.61;100.00;101242.41;5030858;28;20097;-64
2022/03/16 05:26:45;;;;;;;50.45;37.67;;;;;;;1.35;100.00;101188.00;5065498;28;20128;-64
2022/03/16 05:29:11;;;;;;;51.20;38.10;;;;;;;1.60;100.00;101230.31;5065684;28;20965;-64
2022/03/16 05:31:36;;;;;;;50.67;39.15;;;;;;;1.66;100.00;101243.25;5049089;28;20206;-64
2022/03/16 05:34:02;;;;;;;49.55;37.30;;;;;;;1.62;100.00;101231.19;5065897;28;20032;-64
2022/03/16 05:36:27;;;;;;;56.47;37.95;;;;;;;1.66;100.00;101222.53;5067402;28;20035;-63
2022/03/16 05:38:52;;;;;;;51.55;39.85;;;;;;;1.62;100.00;101197.53;5048445;28;20136;-63
2022/03/16 05:41:18;;;;;;;49.97;39.33;;;;;;;1.88;100.00;101233.75;5068564;28;20030;-63
2022/03/16 05:43:43;;;;;;;57.78;45.65;;;;;;;1.91;100.00;101218.19;5066162;28;20901;-63
2022/03/16 05:46:09;;;;;;;54.45;40.08;;;;;;;2.05;100.00;101230.25;5068543;28;20039;-63
2022/03/16 05:48:34;;;;;;;52.97;39.47;;;;;;;1.72;100.00;101173.31;5069018;28;20036;-63
2022/03/16 05:50:59;;;;;;;57.80;39.28;;;;;;;2.09;100.00;101225.06;5068178;28;20024;-63
2022/03/16 05:53:25;;;;;;;57.30;41.28;;;;;;;2.19;100.00;101229.34;5067903;28;20031;-63
2022/03/16 05:55:50;;;;;;;57.33;41.83;;;;;;;2.17;100.00;101218.09;5068614;28;20849;-63
2022/03/16 05:58:16;;;;;;;63.03;46.60;;;;;;;2.23;100.00;101223.31;5066168;28;20039;-63
2022/03/16 06:00:42;;;;;;;57.80;43.13;;;;;;;2.25;100.00;101226.75;5065846;28;20795;-63
2022/03/16 06:03:08;;;;;;;67.63;43.22;;;;;;;2.19;100.00;101219.00;5048369;28;20027;-63
2022/03/16 06:05:33;;;;;;;58.38;43.30;;;;;;;2.30;100.00;101222.41;5067389;28;20132;-63
2022/03/16 06:08:00;;;;;;;65.07;44.78;;;;;;;2.35;100.00;101229.31;5066587;28;20051;-62
2022/03/16 06:10:26;;;;;;;59.65;43.42;;;;;;;2.19;100.00;101200.84;5066930;28;20023;-63
2022/03/16 06:13:02;;;;;;;66.53;45.10;;;;;;;2.34;100.00;101217.19;5066570;28;20088;-63
2022/03/16 06:15:30;;;;;;;57.75;42.75;;;;;;;2.42;100.00;101238.78;5067958;28;20043;-63
2022/03/16 06:17:58;;;;;;;59.70;43.15;;;;;;;2.46;100.00;101237.03;5049729;28;20479;-63
2022/03/16 06:20:25;;;;;;;56.03;44.45;;;;;;;2.51;100.00;101237.88;5066369;28;20861;-63
2022/03/16 06:22:50;;;;;;;57.47;45.05;;;;;;;2.59;100.00;101233.53;5049573;28;20027;-63
2022/03/16 06:25:15;;;;;;;60.67;44.45;;;;;;;2.65;100.00;101230.91;5066393;28;20038;-63
2022/03/16 06:27:41;;;;;;;58.67;41.50;;;;;;;2.64;100.00;101215.38;5049716;28;20976;-63
2022/03/16 06:30:07;;;;;;;58.83;45.63;;;;;;;2.71;100.00;101222.22;5069619;28;20050;-63
2022/03/16 06:32:32;;;;;;;64.75;45.13;;;;;;;2.75;100.00;101229.13;5064539;28;20031;-63
2022/03/16 06:34:58;;;;;;;56.00;44.00;;;;;;;2.75;100.00;101235.19;5066579;28;20028;-63
2022/03/16 06:37:23;;;;;;;67.07;45.72;;;;;;;2.65;100.00;101215.34;5049000;28;20066;-63
2022/03/16 06:39:49;;;;;;;49.85;40.60;;;;;;;2.52;100.00;101191.19;5067609;28;20051;-64
2022/03/16 06:42:14;;;;;;;65.05;45.15;;;;;;;2.75;100.00;101229.13;5065838;28;20032;-63
2022/03/16 06:44:39;;;;;;;69.63;43.65;;;;;;;2.78;100.00;101231.69;5065986;28;20024;-63
2022/03/16 06:47:05;;;;;;;56.75;42.50;;;;;;;2.83;100.00;101240.34;5066181;28;20049;-63
2022/03/16 06:49:30;;;;;;;51.78;39.78;;;;;;;2.84;100.00;101229.94;5049654;28;20125;-63
2022/03/16 06:51:56;;;;;;;56.38;39.78;;;;;;;2.86;100.00;101232.53;5066978;28;20971;-63
2022/03/16 06:54:21;;;;;;;51.42;41.63;;;;;;;2.83;100.00;101215.25;5066220;28;20024;-63
2022/03/16 06:56:46;;;;;;;58.80;40.33;;;;;;;2.97;100.00;101241.97;5065497;28;20064;-63
2022/03/16 06:59:12;;;;;;;61.60;40.50;;;;;;;3.06;100.00;101247.13;5066556;28;20098;-63
2022/03/16 07:01:37;;;;;;;53.50;41.25;;;;;;;3.14;100.00;101243.63;5066186;28;20483;-63
2022/03/16 07:04:03;;;;;;;57.28;39.95;;;;;;;3.21;100.00;101247.91;5064643;28;20034;-63
2022/03/16 07:06:29;;;;;;;50.78;38.88;;;;;;;3.22;100.00;101236.63;5064916;28;20128;-65
2022/03/16 07:08:54;;;;;;;49.00;38.55;;;;;;;3.31;100.00;101246.97;5066034;28;20089;-64
2022/03/16 07:11:19;;;;;;;46.67;35.28;;;;;;;3.37;100.00;101252.97;5065331;28;20113;-64
2022/03/16 07:16:33;;;;;;;45.50;36.60;;;;;;;3.47;100.00;101243.38;5064610;28;20899;-63
2022/03/16 07:18:58;;;;;;;49.22;33.50;;;;;;;3.51;100.00;101251.16;5061267;28;20031;-63
2022/03/16 07:21:24;;;;;;;48.35;35.75;;;;;;;3.54;100.00;101239.88;5064798;28;20168;-62
2022/03/16 07:23:49;;;;;;;43.05;34.17;;;;;;;3.56;100.00;101228.59;5062748;28;20485;-63
2022/03/16 07:26:14;;;;;;;44.92;33.63;;;;;;;3.61;100.00;101231.16;5053748;28;20028;-63
2022/03/16 07:28:40;;;;;;;45.50;31.55;;;;;;;3.70;100.00;101236.25;5045762;28;20024;-63
2022/03/16 07:31:08;;;;;;;48.15;34.25;;;;;;;3.69;100.00;101234.53;5062429;28;20028;-63
2022/03/16 07:33:34;;;;;;;40.90;30.80;;;;;;;3.76;100.00;101236.19;5064845;28;20039;-64
2022/03/16 07:35:59;;;;;;;39.30;30.27;;;;;;;3.78;100.00;101229.28;5047834;28;20137;-63
2022/03/16 07:38:25;;;;;;;38.60;28.60;;;;;;;3.81;100.00;101231.84;5067315;28;20028;-63
2022/03/16 07:40:50;;;;;;;41.30;29.85;;;;;;;3.77;100.00;101217.13;5069193;28;20761;-63
2022/03/16 07:43:16;;;;;;;34.92;26.42;;;;;;;3.84;100.00;101224.00;5069068;28;20131;-63
2022/03/16 07:45:41;;;;;;;35.97;27.88;;;;;;;3.86;100.00;101219.63;5069272;28;20795;-63
2022/03/16 07:48:07;;;;;;;38.42;28.40;;;;;;;3.94;100.00;101241.25;5069238;28;20131;-63
2022/03/16 07:50:33;;;;;;;34.47;26.20;;;;;;;3.99;100.00;101236.84;5070212;28;20078;-64
2022/03/16 07:52:59;;;;;;;36.50;28.42;;;;;;;4.04;100.00;101242.88;5069356;28;20031;-63
2022/03/16 07:55:24;;;;;;;32.20;27.80;;;;;;;4.09;100.00;101241.06;5068920;28;20051;-64
2022/03/16 07:57:52;;;;;;;33.22;27.15;;;;;;;4.17;100.00;101246.19;5068663;28;20035;-63
2022/03/16 08:00:17;;;;;;;33.00;25.48;;;;;;;4.20;100.00;101242.69;5068964;28;20032;-64
2022/03/16 08:02:43;;;;;;;31.63;26.08;;;;;;;4.32;100.00;101239.97;5052617;28;20086;-64
2022/03/16 08:05:09;;;;;;;39.25;24.83;;;;;;;4.36;100.00;101224.31;5070500;28;20019;-64
2022/03/16 08:07:36;;;;;;;32.25;26.10;;;;;;;4.41;100.00;101219.06;5061795;28;20030;-64
2022/03/16 08:10:02;;;;;;;30.42;24.77;;;;;;;4.54;100.00;101218.88;5071579;28;20886;-64
2022/03/16 08:12:28;;;;;;;33.75;27.17;;;;;;;4.64;100.00;101225.69;5070631;28;20102;-63
2022/03/16 08:14:54;;;;;;;36.05;26.92;;;;;;;4.66;100.00;101215.28;5068615;28;20028;-64
2022/03/16 08:17:19;;;;;;;34.80;26.27;;;;;;;4.48;100.00;101179.06;5041174;28;20226;-64
2022/03/16 08:19:45;;;;;;;31.92;25.80;;;;;;;4.87;100.00;101228.00;5070472;28;20034;-63
2022/03/16 08:22:10;;;;;;;37.28;27.45;;;;;;;4.95;100.00;101228.75;5068719;28;20024;-63
2022/03/16 08:24:36;;;;;;;30.92;25.15;;;;;;;5.02;100.00;101224.31;5068654;28;20054;-63
2022/03/16 08:27:02;;;;;;;32.28;26.63;;;;;;;5.11;100.00;101230.25;5068679;28;20847;-63
2022/03/16 08:29:27;;;;;;;31.50;23.88;;;;;;;5.17;100.00;101218.03;5069590;28;20081;-63
2022/03/16 08:31:54;;;;;;;31.52;24.33;;;;;;;5.26;100.00;101216.16;5050271;28;20070;-63
2022/03/16 08:34:19;;;;;;;31.55;24.20;;;;;;;5.41;100.00;101215.91;5069234;28;20058;-63
2022/03/16 08:36:45;;;;;;;26.98;21.35;;;;;;;5.51;100.00;101217.47;5068837;28;20032;-64
2022/03/16 08:39:10;;;;;;;26.63;21.70;;;;;;;5.68;100.00;101237.22;5068536;28;20031;-63
2022/03/16 08:41:36;;;;;;;24.90;21.38;;;;;;;5.77;100.00;101224.00;5068344;28;20028;-63
2022/03/16 08:44:02;;;;;;;26.00;21.88;;;;;;;5.77;100.00;101208.38;5051443;28;20792;-63
2022/03/16 08:46:28;;;;;;;29.83;21.98;;;;;;;5.88;100.00;101202.09;5067668;28;20035;-63
2022/03/16 08:48:54;;;;;;;26.40;20.58;;;;;;;6.22;100.00;101228.41;5067490;28;20028;-63
2022/03/16 08:51:19;;;;;;;24.40;19.75;;;;;;;6.34;100.00;101229.94;5070075;28;20031;-64
2022/03/16 08:53:45;;;;;;;23.23;18.98;;;;;;;6.43;100.00;101225.38;5069200;28;20062;-63
2022/03/16 08:56:11;;;;;;;25.45;20.80;;;;;;;6.51;100.00;101220.88;5068843;28;20042;-63
2022/03/16 08:58:37;;;;;;;20.27;17.90;;;;;;;6.58;100.00;101208.56;5067164;28;20123;-63
2022/03/16 09:01:02;;;;;;;21.73;16.95;;;;;;;6.72;100.00;101213.50;5050781;28;20134;-63
2022/03/16 09:03:28;;;;;;;20.13;17.42;;;;;;;6.84;100.00;101227.13;5067490;28;20803;-64
2022/03/16 09:05:53;;;;;;;24.70;17.42;;;;;;;6.82;100.00;101191.50;5069383;28;20055;-64
2022/03/16 09:08:19;;;;;;;21.88;16.45;;;;;;;6.90;100.00;101184.34;5068750;28;20855;-64
2022/03/16 09:10:45;;;;;;;20.13;17.60;;;;;;;7.32;100.00;101226.94;5066625;28;20163;-64
2022/03/16 09:13:10;;;;;;;20.45;16.55;;;;;;;7.37;100.00;101214.63;5068097;28;20024;-63
2022/03/16 09:15:36;;;;;;;19.42;15.30;;;;;;;7.61;100.00;101224.47;5065100;28;20044;-64
2022/03/16 09:18:01;;;;;;;21.15;15.35;;;;;;;7.81;100.00;101224.81;5066825;28;20194;-64
2022/03/16 09:20:27;;;;;;;15.02;13.25;;;;;;;7.99;100.00;101221.75;5048344;28;20465;-63
2022/03/16 09:22:53;;;;;;;25.25;13.88;;;;;;;8.14;100.00;101210.00;5066954;28;20043;-64
2022/03/16 09:25:20;;;;;;;14.25;12.75;;;;;;;8.13;100.00;101206.53;5047994;28;20130;-63
2022/03/16 09:27:45;;;;;;;19.30;13.93;;;;;;;8.16;100.00;101192.50;5067113;28;20027;-63
2022/03/16 09:30:11;;;;;;;18.15;13.75;;;;;;;8.37;100.00;101223.34;5066307;28;20863;-63
2022/03/16 09:32:38;;;;;;;18.08;13.93;;;;;;;8.59;100.00;101244.53;5066799;28;20055;-63
2022/03/16 09:35:04;;;;;;;16.17;12.88;;;;;;;8.75;100.00;101247.59;5066493;28;20874;-63
2022/03/16 09:37:29;;;;;;;13.32;11.90;;;;;;;8.71;100.00;101212.78;5065678;28;20036;-64
2022/03/16 09:39:55;;;;;;;19.88;12.70;;;;;;;8.89;100.00;101233.16;5049598;28;20208;-63
2022/03/16 09:42:20;;;;;;;20.27;11.85;;;;;;;9.08;100.00;101238.75;5066686;28;20945;-63
2022/03/16 09:44:46;;;;;;;17.15;12.55;;;;;;;9.18;100.00;101230.53;5048765;28;20023;-63
2022/03/16 09:47:12;;;;;;;13.77;12.32;;;;;;;9.23;100.00;101227.75;5066559;28;20043;-63
2022/03/16 09:49:38;;;;;;;13.77;12.00;;;;;;;9.20;100.00;101196.41;5066696;28;20418;-63
2022/03/16 09:52:07;;;;;;;15.90;11.10;;;;;;;9.56;100.00;101231.09;5066586;28;20023;-63
2022/03/16 09:54:32;;;;;;;16.00;11.80;;;;;;;9.66;100.00;101229.88;5066123;28;20097;-63
2022/03/16 09:56:58;;;;;;;13.80;11.30;;;;;;;9.85;100.00;101223.09;5066217;28;20089;-63
2022/03/16 09:59:23;;;;;;;12.50;10.52;;;;;;;9.88;100.00;101195.88;5065869;28;20084;-63
2022/03/16 10:02:00;;;;;;;13.65;11.75;;;;;;;10.05;100.00;101194.38;5065568;28;20038;-63
2022/03/16 10:04:30;;;;;;;14.32;11.27;;;;;;;10.37;100.00;101222.19;5050496;28;20039;-63
2022/03/16 10:06:55;;;;;;;11.82;10.48;;;;;;;10.45;100.00;101219.25;5067170;28;20035;-63
2022/03/16 10:15:10;;;;;;;10.80;9.55;;;;;;;10.81;100.00;101220.53;5065982;28;20050;-63
2022/03/16 10:17:45;;;;;;;13.02;9.70;;;;;;;10.87;100.00;101215.03;5065473;28;20907;-63
2022/03/16 10:20:11;;;;;;;11.70;9.52;;;;;;;11.06;100.00;101212.53;5067639;28;20860;-63
2022/03/16 10:22:40;;;;;;;10.73;9.48;;;;;;;11.17;100.00;101208.59;5049340;28;20112;-63
2022/03/16 10:25:06;;;;;;;11.50;8.65;;;;;;;11.39;100.00;101215.63;5065746;28;20031;-63
2022/03/16 10:27:39;;;;;;;10.95;9.48;;;;;;;11.56;100.00;101214.00;5066070;28;20034;-63
2022/03/16 10:30:06;;;;;;;13.10;10.20;;;;;;;11.75;100.00;101214.16;5065088;28;20978;-63
2022/03/16 10:32:32;;;;;;;17.55;9.75;;;;;;;11.95;100.00;101205.38;5066764;28;20027;-63
2022/03/16 10:34:58;;;;;;;11.00;8.85;;;;;;;12.14;100.00;101208.94;5066790;28;20081;-63
2022/03/16 10:37:24;;;;;;;15.23;10.02;;;;;;;12.28;100.00;101210.06;5047865;28;20063;-64
2022/03/16 10:39:51;;;;;;;11.30;8.35;;;;;;;12.34;100.00;101203.63;5067278;28;20028;-63
2022/03/16 10:48:12;;;;;;;11.55;8.45;;;;;;;12.84;100.00;101195.22;5066602;28;20034;-63
2022/03/16 10:50:41;;;;;;;12.27;8.73;;;;;;;13.10;100.00;101203.66;5065608;28;20032;-63
2022/03/16 10:53:06;;;;;;;11.13;8.48;;;;;;;13.34;100.00;101224.53;5065948;28;20071;-63
2022/03/16 10:55:32;;;;;;;14.50;9.02;;;;;;;13.17;100.00;101175.19;5067776;28;20842;-63
2022/03/16 10:57:57;;;;;;;11.77;8.52;;;;;;;13.44;100.00;101217.88;5066015;28;20546;-63
2022/03/16 11:00:27;;;;;;;9.57;8.57;;;;;;;13.50;100.00;101188.50;5067378;28;20028;-63
2022/03/16 11:02:53;;;;;;;10.60;8.27;;;;;;;13.77;100.00;101203.84;5066888;28;20868;-63
2022/03/16 11:05:20;;;;;;;9.70;7.78;;;;;;;13.99;100.00;101182.44;5047626;28;20027;-63
2022/03/16 11:07:48;;;;;;;9.43;7.55;;;;;;;14.55;100.00;101199.81;5066295;28;20076;-63
2022/03/16 11:10:13;;;;;;;11.43;7.80;;;;;;;14.71;100.00;101190.94;5047817;28;20901;-63
2022/03/16 11:15:23;;;;;;;8.77;7.28;;;;;;;14.79;100.00;101185.25;5049361;28;20047;-63
2022/03/16 11:17:51;;;;;;;9.82;7.43;;;;;;;14.72;100.00;101170.66;5071410;28;20148;-64
2022/03/16 11:20:19;;;;;;;11.18;7.30;;;;;;;14.95;100.00;101196.69;5069966;28;20024;-63
2022/03/16 11:26:00;;;;;;;11.50;6.80;;;;;;;15.32;100.00;101201.63;5046869;28;20895;-63
2022/03/16 11:28:47;;;;;;;11.85;7.38;;;;;;;15.63;100.00;101194.59;5071536;28;20032;-63
2022/03/16 11:31:14;;;;;;;9.38;6.72;;;;;;;15.72;100.00;101186.97;5069770;28;20027;-64
2022/03/16 11:33:52;;;;;;;7.63;6.80;;;;;;;16.03;100.00;101191.28;5069963;28;20035;-63
2022/03/16 11:36:40;;;;;;;7.75;6.03;;;;;;;16.09;100.00;101172.34;5070706;28;20043;-63
2022/03/16 11:39:28;;;;;;;10.13;7.07;;;;;;;16.13;100.00;101195.09;5050333;28;20032;-63